地図

経路データ

SID SEASON NUMBER BASIN SUBBASIN NAME ISO_TIME NATURE LAT LON WMO_WIND WMO_PRES WMO_AGENCY TRACK_TYPE DIST2LAND LANDFALL IFLAG USA_AGENCY USA_ATCF_ID USA_LAT USA_LON USA_RECORD USA_STATUS USA_WIND USA_PRES USA_SSHS USA_R34_NE USA_R34_SE USA_R34_SW USA_R34_NW USA_R50_NE USA_R50_SE USA_R50_SW USA_R50_NW USA_R64_NE USA_R64_SE USA_R64_SW USA_R64_NW USA_POCI USA_ROCI USA_RMW USA_EYE TOKYO_LAT TOKYO_LON TOKYO_GRADE TOKYO_WIND TOKYO_PRES TOKYO_R50_DIR TOKYO_R50_LONG TOKYO_R50_SHORT TOKYO_R30_DIR TOKYO_R30_LONG TOKYO_R30_SHORT TOKYO_LAND CMA_LAT CMA_LON CMA_CAT CMA_WIND CMA_PRES HKO_LAT HKO_LON HKO_CAT HKO_WIND HKO_PRES NEWDELHI_LAT NEWDELHI_LON NEWDELHI_GRADE NEWDELHI_WIND NEWDELHI_PRES NEWDELHI_CI NEWDELHI_DP NEWDELHI_POCI REUNION_LAT REUNION_LON REUNION_TYPE REUNION_WIND REUNION_PRES REUNION_TNUM REUNION_CI REUNION_RMW REUNION_R34_NE REUNION_R34_SE REUNION_R34_SW REUNION_R34_NW REUNION_R50_NE REUNION_R50_SE REUNION_R50_SW REUNION_R50_NW REUNION_R64_NE REUNION_R64_SE REUNION_R64_SW REUNION_R64_NW BOM_LAT BOM_LON BOM_TYPE BOM_WIND BOM_PRES BOM_TNUM BOM_CI BOM_RMW BOM_R34_NE BOM_R34_SE BOM_R34_SW BOM_R34_NW BOM_R50_NE BOM_R50_SE BOM_R50_SW BOM_R50_NW BOM_R64_NE BOM_R64_SE BOM_R64_SW BOM_R64_NW BOM_ROCI BOM_POCI BOM_EYE BOM_POS_METHOD BOM_PRES_METHOD NADI_LAT NADI_LON NADI_CAT NADI_WIND NADI_PRES WELLINGTON_LAT WELLINGTON_LON WELLINGTON_WIND WELLINGTON_PRES DS824_LAT DS824_LON DS824_STAGE DS824_WIND DS824_PRES TD9636_LAT TD9636_LON TD9636_STAGE TD9636_WIND TD9636_PRES TD9635_LAT TD9635_LON TD9635_WIND TD9635_PRES TD9635_ROCI NEUMANN_LAT NEUMANN_LON NEUMANN_CLASS NEUMANN_WIND NEUMANN_PRES MLC_LAT MLC_LON MLC_CLASS MLC_WIND MLC_PRES USA_GUST BOM_GUST BOM_GUST_PER REUNION_GUST REUNION_GUST_PER USA_SEAHGT USA_SEARAD_NE USA_SEARAD_SE USA_SEARAD_SW USA_SEARAD_NW STORM_SPEED STORM_DIR
1936238N18117 1936 40 WP MM NOT_NAMED 1936-08-25 10:00:00 NR 17.7000 116.800 main 355 355 __________O___ -1 17.7000 116.800 2 5 297
1936238N18117 1936 40 WP MM NOT_NAMED 1936-08-25 12:00:00 NR 17.7700 116.654 main 369 379 __________P___ -1 17.7700 116.654 2 5 297
1936238N18117 1936 40 WP MM NOT_NAMED 1936-08-25 15:00:00 NR 17.8737 116.434 main 403 403 __________P___ -1 17.8737 116.434 2 5 296
1936238N18117 1936 40 WP MM NOT_NAMED 1936-08-25 18:00:00 NR 17.9742 116.210 main 427 427 __________P___ -1 17.9742 116.210 2 5 294
1936238N18117 1936 40 WP MM NOT_NAMED 1936-08-25 21:00:00 NR 18.0696 115.979 main 451 451 __________P___ -1 18.0696 115.979 2 5 293
1936238N18117 1936 40 WP MM NOT_NAMED 1936-08-25 22:00:00 NR 18.1000 115.900 main 460 460 __________O___ -1 18.1000 115.900 2 5 291
1936238N18117 1936 40 WP MM NOT_NAMED 1936-08-26 00:00:00 NR 18.1583 115.739 main 481 475 __________P___ -1 18.1583 115.739 2 5 290
1936238N18117 1936 40 WP MM NOT_NAMED 1936-08-26 03:00:00 NR 18.2395 115.491 main 475 457 __________P___ -1 18.2395 115.491 2 5 288
1936238N18117 1936 40 WP MM NOT_NAMED 1936-08-26 06:00:00 NR 18.3133 115.239 main 457 441 __________P___ -1 18.3133 115.239 2 5 286
1936238N18117 1936 40 WP MM NOT_NAMED 1936-08-26 09:00:00 NR 18.3796 114.985 main 441 431 __________P___ -1 18.3796 114.985 2 5 285
1936238N18117 1936 40 WP MM NOT_NAMED 1936-08-26 10:00:00 NR 18.4000 114.900 main 431 411 __________O___ -1 18.4000 114.900 2 5 285
1936238N18117 1936 40 WP MM NOT_NAMED 1936-08-26 12:00:00 NR 18.4415 114.739 main 411 387 __________P___ -1 18.4415 114.739 2 5 284
1936238N18117 1936 40 WP MM NOT_NAMED 1936-08-26 15:00:00 NR 18.4977 114.496 main 387 358 __________P___ -1 18.4977 114.496 2 5 283
1936238N18117 1936 40 WP MM NOT_NAMED 1936-08-26 18:00:00 NR 18.5464 114.249 main 358 334 __________P___ -1 18.5464 114.249 2 5 281
1936238N18117 1936 40 WP MM NOT_NAMED 1936-08-26 21:00:00 NR 18.5878 113.990 main 334 324 __________P___ -1 18.5878 113.990 2 5 279
1936238N18117 1936 40 WP MM NOT_NAMED 1936-08-26 22:00:00 NR 18.6000 113.900 main 324 304 __________O___ -1 18.6000 113.900 2 5 277
1936238N18117 1936 40 WP MM NOT_NAMED 1936-08-27 00:00:00 NR 18.6224 113.706 main 304 275 __________P___ -1 18.6224 113.706 2 6 276
1936238N18117 1936 40 WP MM NOT_NAMED 1936-08-27 03:00:00 NR 18.6497 113.403 main 275 242 __________P___ -1 18.6497 113.403 2 6 275
1936238N18117 1936 40 WP MM NOT_NAMED 1936-08-27 06:00:00 NR 18.6722 113.095 main 242 214 __________P___ -1 18.6722 113.095 2 6 274
1936238N18117 1936 40 WP MM NOT_NAMED 1936-08-27 09:00:00 NR 18.6929 112.796 main 214 205 __________P___ -1 18.6929 112.796 2 6 274
1936238N18117 1936 40 WP MM NOT_NAMED 1936-08-27 10:00:00 NR 18.7000 112.700 main 205 195 __________O___ -1 18.7000 112.700 2 4 273
1936238N18117 1936 40 WP MM NOT_NAMED 1936-08-27 12:00:00 NR 18.7053 112.569 main 195 178 __________P___ -1 18.7053 112.569 2 4 273
1936238N18117 1936 40 WP MM NOT_NAMED 1936-08-27 15:00:00 NR 18.7134 112.386 main 178 161 __________P___ -1 18.7134 112.386 2 4 274
1936238N18117 1936 40 WP MM NOT_NAMED 1936-08-27 18:00:00 NR 18.7331 112.164 main 161 122 __________P___ -1 18.7331 112.164 2 5 277
1936238N18117 1936 40 WP MM NOT_NAMED 1936-08-27 21:00:00 NR 18.7775 111.841 main 122 114 __________P___ -1 18.7775 111.841 2 7 279
1936238N18117 1936 40 WP MM NOT_NAMED 1936-08-27 22:00:00 NR 18.8000 111.700 main 114 74 __________O___ -1 18.8000 111.700 2 10 280
1936238N18117 1936 40 WP MM NOT_NAMED 1936-08-28 00:00:00 NR 18.8638 111.336 main 74 10 __________P___ -1 18.8638 111.336 2 12 281
1936238N18117 1936 40 WP MM NOT_NAMED 1936-08-28 03:00:00 NR 18.9844 110.677 main 10 0 __________P___ -1 18.9844 110.677 2 14 281
1936238N18117 1936 40 WP MM NOT_NAMED 1936-08-28 06:00:00 NR 19.1205 109.932 main 0 0 __________P___ -1 19.1205 109.932 2 15 281
1936238N18117 1936 40 WP MM NOT_NAMED 1936-08-28 09:00:00 NR 19.2570 109.156 main 0 0 __________P___ -1 19.2570 109.156 2 15 280
1936238N18117 1936 40 WP MM NOT_NAMED 1936-08-28 10:00:00 NR 19.3000 108.900 main 0 0 __________O___ -1 19.3000 108.900 2 14 280
1936238N18117 1936 40 WP MM NOT_NAMED 1936-08-28 12:00:00 NR 19.3802 108.403 main 23 23 __________P___ -1 19.3802 108.403 2 14 279
1936238N18117 1936 40 WP MM NOT_NAMED 1936-08-28 15:00:00 NR 19.4876 107.687 main 97 85 __________P___ -1 19.4876 107.687 2 13 279
1936238N18117 1936 40 WP MM NOT_NAMED 1936-08-28 18:00:00 NR 19.5834 106.998 main 85 35 __________P___ -1 19.5834 106.998 2 13 278
1936238N18117 1936 40 WP MM NOT_NAMED 1936-08-28 21:00:00 NR 19.6716 106.324 main 35 23 __________P___ -1 19.6716 106.324 2 13 278
1936238N18117 1936 40 WP MM NOT_NAMED 1936-08-28 22:00:00 NR 19.7000 106.100 main 23 __________O___ -1 19.7000 106.100 2 13 278

デジタル台風データ・検索

IBTrACS Databaseについて

本データベースは、米国NOAAが公開する1842年以降の世界の熱帯低気圧のベストトラックデータアーカイブInternational Best Track Archive for Climate Stewardship (IBTrACS)を、ウェブで閲覧しやすい形式に変換したものです。

最終更新日:2021-11-26